createdAt,value
2022-09-18T06:26:15.229Z,100.00
2022-09-18T06:28:42.324Z,100.00
2022-09-18T06:31:10.740Z,100.00
2022-09-18T06:33:37.375Z,100.00
2022-09-18T06:36:08.308Z,100.00
2022-09-18T06:38:34.873Z,100.00
2022-09-18T06:41:01.612Z,100.00
2022-09-18T06:43:28.763Z,100.00
2022-09-18T06:45:56.673Z,100.00
2022-09-18T06:48:26.723Z,100.00
2022-09-18T06:50:54.561Z,100.00
2022-09-18T06:53:21.930Z,100.00
2022-09-18T06:55:48.976Z,100.00
2022-09-18T06:58:19.705Z,100.00
2022-09-18T07:00:46.656Z,100.00
2022-09-18T07:03:13.306Z,100.00
2022-09-18T07:05:46.718Z,100.00
2022-09-18T07:08:13.829Z,100.00
2022-09-18T07:10:41.095Z,100.00
2022-09-18T07:13:07.829Z,100.00
2022-09-18T07:15:34.556Z,100.00
2022-09-18T07:18:02.880Z,100.00
2022-09-18T07:20:29.744Z,100.00
2022-09-18T07:22:58.509Z,100.00
2022-09-18T07:25:30.823Z,100.00
2022-09-18T07:28:02.727Z,100.00
2022-09-18T07:30:29.164Z,100.00
2022-09-18T07:32:55.772Z,100.00
2022-09-18T07:35:22.538Z,100.00
2022-09-18T07:37:48.961Z,100.00
2022-09-18T07:40:15.552Z,100.00
2022-09-18T07:42:42.002Z,100.00
2022-09-18T07:45:09.071Z,100.00
2022-09-18T07:47:35.664Z,100.00
2022-09-18T07:50:02.726Z,100.00
2022-09-18T07:52:29.285Z,100.00
2022-09-18T07:54:56.969Z,100.00
2022-09-18T07:57:23.895Z,100.00
2022-09-18T07:59:50.489Z,100.00
2022-09-18T08:02:17.108Z,100.00
2022-09-18T08:04:44.028Z,100.00
2022-09-18T08:07:10.844Z,100.00
2022-09-18T08:09:37.274Z,100.00
2022-09-18T08:12:04.153Z,100.00
2022-09-18T08:14:30.705Z,100.00
2022-09-18T08:16:57.814Z,100.00
2022-09-18T08:19:24.778Z,100.00
2022-09-18T08:21:51.438Z,100.00
2022-09-18T08:24:17.979Z,100.00
2022-09-18T08:26:44.959Z,100.00
2022-09-18T08:29:18.821Z,100.00
2022-09-18T08:31:46.647Z,100.00
2022-09-18T08:34:13.614Z,86.72
2022-09-18T08:36:40.106Z,74.17
2022-09-18T08:39:06.653Z,74.68
2022-09-18T08:41:43.594Z,72.54
2022-09-18T08:44:12.844Z,68.35
2022-09-18T08:46:48.308Z,70.67
2022-09-18T08:49:34.809Z,72.62
2022-09-18T08:52:14.716Z,69.73
2022-09-18T08:55:01.471Z,74.76
2022-09-18T08:57:54.193Z,79.15
2022-09-18T09:00:23.678Z,84.30
2022-09-18T09:02:55.791Z,87.76
2022-09-18T09:05:27.448Z,87.36
2022-09-18T09:08:08.260Z,78.76
2022-09-18T09:10:42.382Z,74.13
2022-09-18T09:13:32.551Z,79.60
2022-09-18T09:16:06.873Z,78.43
2022-09-18T09:19:12.379Z,84.05
2022-09-18T09:22:13.857Z,85.01
2022-09-18T09:24:48.091Z,74.67
2022-09-18T09:27:19.948Z,70.01
2022-09-18T09:29:47.457Z,62.97
2022-09-18T09:32:31.067Z,59.02
2022-09-18T09:35:05.101Z,57.80
2022-09-18T09:37:39.950Z,55.33
2022-09-18T09:40:14.565Z,56.95
2022-09-18T09:42:46.469Z,64.55
2022-09-18T09:45:24.907Z,68.12
2022-09-18T09:48:16.493Z,72.02
2022-09-18T09:51:09.993Z,74.64
2022-09-18T09:53:36.551Z,77.73
2022-09-18T09:56:35.597Z,78.35
2022-09-18T09:59:20.493Z,80.67
2022-09-18T10:02:15.852Z,68.61
2022-09-18T10:04:50.649Z,62.65
2022-09-18T10:07:25.723Z,65.02
2022-09-18T10:10:05.223Z,64.59
2022-09-18T10:12:55.240Z,61.49
2022-09-18T10:15:24.786Z,62.47
2022-09-18T10:17:53.037Z,59.87
2022-09-18T10:20:27.780Z,54.30
2022-09-18T10:22:56.102Z,54.20
2022-09-18T10:25:40.508Z,55.06
2022-09-18T10:28:13.113Z,52.72
2022-09-18T10:30:59.000Z,49.43
2022-09-18T10:33:38.534Z,49.26
2022-09-18T10:36:14.249Z,48.30
2022-09-18T10:38:40.833Z,48.33
2022-09-18T10:41:12.218Z,51.23
2022-09-18T10:44:01.750Z,49.81
2022-09-18T10:46:33.176Z,51.39
2022-09-18T10:49:18.555Z,51.90
2022-09-18T10:51:45.367Z,51.70
2022-09-18T10:54:24.974Z,57.29
2022-09-18T10:56:52.269Z,65.47
2022-09-18T10:59:28.376Z,70.84
2022-09-18T11:01:57.229Z,70.35
2022-09-18T11:04:24.153Z,71.13
2022-09-18T11:06:51.212Z,71.09
2022-09-18T11:09:20.233Z,66.58
2022-09-18T11:11:51.487Z,58.69
2022-09-18T11:14:22.604Z,62.47
2022-09-18T11:16:52.042Z,76.53
2022-09-18T11:19:37.935Z,89.82
2022-09-18T11:22:06.962Z,100.00
2022-09-18T11:24:35.511Z,100.00
2022-09-18T11:27:12.289Z,100.00
2022-09-18T11:29:39.798Z,100.00
2022-09-18T11:32:19.552Z,100.00
2022-09-18T11:34:51.220Z,100.00
2022-09-18T11:37:51.043Z,100.00
2022-09-18T11:40:24.475Z,100.00
2022-09-18T11:42:54.021Z,100.00
2022-09-18T11:45:41.612Z,100.00
2022-09-18T11:48:34.799Z,100.00
2022-09-18T11:51:05.050Z,100.00
2022-09-18T11:53:40.917Z,100.00
2022-09-18T11:56:13.695Z,100.00
2022-09-18T11:58:56.223Z,100.00
2022-09-18T12:01:31.640Z,92.57
2022-09-18T12:04:21.375Z,87.04
2022-09-18T12:07:01.320Z,87.90
2022-09-18T12:09:49.014Z,88.87
2022-09-18T12:12:25.300Z,81.07
2022-09-18T12:15:07.747Z,88.19
2022-09-18T12:18:03.435Z,99.53
2022-09-18T12:20:57.239Z,100.00
2022-09-18T12:23:25.790Z,100.00
2022-09-18T12:26:04.894Z,100.00
2022-09-18T12:28:57.810Z,100.00
2022-09-18T12:31:59.115Z,100.00
2022-09-18T12:34:32.490Z,94.89
2022-09-18T12:37:04.784Z,94.59
2022-09-18T12:40:12.149Z,76.39
2022-09-18T12:43:13.008Z,77.03
2022-09-18T12:46:10.766Z,74.69
2022-09-18T12:48:45.608Z,77.56
2022-09-18T12:51:46.643Z,70.30
2022-09-18T12:54:17.128Z,67.67
2022-09-18T12:57:13.130Z,68.95
2022-09-18T12:59:58.890Z,67.63
2022-09-18T13:02:57.045Z,64.20
2022-09-18T13:05:39.622Z,66.17
2022-09-18T13:08:21.318Z,69.15
2022-09-18T13:10:51.563Z,69.88
2022-09-18T13:13:26.563Z,70.46
2022-09-18T13:16:26.165Z,71.39
2022-09-18T13:19:01.523Z,72.74
2022-09-18T13:21:31.355Z,73.07
2022-09-18T13:23:58.725Z,77.68
2022-09-18T13:26:28.614Z,78.73
2022-09-18T13:28:55.423Z,76.68
2022-09-18T13:31:27.888Z,74.25
2022-09-18T13:34:06.746Z,75.54
2022-09-18T13:36:39.549Z,75.67
2022-09-18T13:39:16.357Z,76.40
2022-09-18T13:41:48.958Z,78.06
2022-09-18T13:44:35.457Z,78.98
2022-09-18T13:47:14.088Z,80.54
2022-09-18T13:49:49.675Z,78.81
2022-09-18T13:52:34.114Z,80.92
2022-09-18T13:55:12.718Z,81.14
2022-09-18T13:57:44.159Z,81.65
2022-09-18T14:00:34.061Z,81.03
2022-09-18T14:03:27.234Z,82.75
2022-09-18T14:05:55.022Z,84.62
2022-09-18T14:08:22.302Z,90.26
2022-09-18T14:11:05.372Z,92.77
2022-09-18T14:13:51.147Z,100.00
2022-09-18T14:16:20.548Z,100.00
2022-09-18T14:18:47.071Z,100.00
2022-09-18T14:21:40.054Z,100.00
2022-09-18T14:24:43.673Z,100.00
2022-09-18T14:27:49.834Z,100.00
2022-09-18T14:30:18.346Z,100.00
2022-09-18T14:32:54.335Z,100.00
2022-09-18T14:35:55.287Z,100.00
2022-09-18T14:38:35.218Z,100.00
2022-09-18T14:41:19.241Z,100.00
2022-09-18T14:43:50.491Z,100.00
2022-09-18T14:46:22.267Z,100.00
2022-09-18T14:48:49.149Z,100.00
2022-09-18T14:51:24.475Z,100.00
2022-09-18T14:53:53.830Z,100.00
2022-09-18T14:56:26.873Z,100.00
2022-09-18T14:58:53.405Z,100.00
2022-09-18T15:01:23.668Z,100.00
2022-09-18T15:03:51.990Z,100.00
2022-09-18T15:06:24.584Z,100.00
2022-09-18T15:08:52.551Z,100.00
2022-09-18T15:11:20.980Z,100.00
2022-09-18T15:13:50.736Z,100.00
2022-09-18T15:16:20.199Z,100.00
2022-09-18T15:18:49.414Z,100.00
2022-09-18T15:21:33.564Z,100.00
2022-09-18T15:24:02.308Z,100.00
2022-09-18T15:26:32.836Z,100.00
2022-09-18T15:29:00.433Z,100.00
2022-09-18T15:31:30.129Z,100.00
2022-09-18T15:34:11.842Z,100.00
2022-09-18T15:36:40.938Z,100.00
2022-09-18T15:39:09.622Z,100.00
2022-09-18T15:41:41.508Z,100.00
2022-09-18T15:44:30.046Z,100.00
2022-09-18T15:46:56.576Z,100.00
2022-09-18T15:49:28.985Z,100.00
2022-09-18T15:51:56.112Z,100.00
2022-09-18T15:54:23.656Z,100.00
2022-09-18T15:56:58.828Z,100.00
2022-09-18T15:59:37.024Z,100.00
2022-09-18T16:02:37.492Z,100.00
2022-09-18T16:05:12.082Z,100.00
2022-09-18T16:07:39.904Z,100.00
2022-09-18T16:10:44.070Z,100.00
2022-09-18T16:13:10.534Z,100.00
2022-09-18T16:15:37.622Z,100.00
2022-09-18T16:18:16.279Z,100.00
2022-09-18T16:20:59.105Z,100.00
2022-09-18T16:23:33.885Z,100.00
2022-09-18T16:26:07.036Z,100.00
2022-09-18T16:28:46.108Z,100.00
2022-09-18T16:31:14.694Z,100.00
2022-09-18T16:33:57.755Z,100.00
2022-09-18T16:36:27.340Z,100.00
2022-09-18T16:38:55.421Z,100.00
2022-09-18T16:41:21.841Z,100.00
2022-09-18T16:43:48.694Z,100.00
2022-09-18T16:46:17.073Z,100.00
2022-09-18T16:48:44.728Z,100.00
2022-09-18T16:51:11.347Z,100.00
2022-09-18T16:53:38.244Z,100.00
2022-09-18T16:56:08.078Z,100.00
2022-09-18T16:58:37.722Z,100.00
2022-09-18T17:01:05.088Z,100.00
2022-09-18T17:03:32.645Z,100.00
2022-09-18T17:06:02.022Z,100.00
2022-09-18T17:08:30.279Z,100.00
2022-09-18T17:10:57.030Z,100.00
2022-09-18T17:13:23.610Z,100.00
2022-09-18T17:15:50.353Z,100.00
2022-09-18T17:18:17.056Z,100.00
2022-09-18T17:20:43.604Z,100.00
2022-09-18T17:23:10.114Z,100.00
2022-09-18T17:25:36.909Z,100.00
2022-09-18T17:28:03.489Z,100.00
2022-09-18T17:30:29.990Z,100.00
2022-09-18T17:32:56.691Z,100.00
2022-09-18T17:35:23.510Z,100.00
2022-09-18T17:37:51.679Z,100.00
2022-09-18T17:40:19.503Z,100.00
2022-09-18T17:42:46.101Z,100.00
2022-09-18T17:45:12.811Z,100.00
2022-09-18T17:47:39.353Z,100.00
2022-09-18T17:50:08.788Z,100.00
2022-09-18T17:52:36.475Z,100.00
2022-09-18T17:55:03.872Z,100.00
2022-09-18T17:57:31.991Z,100.00
2022-09-18T17:59:58.702Z,100.00
2022-09-18T18:02:25.590Z,100.00
2022-09-18T18:04:52.092Z,100.00
2022-09-18T18:07:18.568Z,100.00
2022-09-18T18:09:46.797Z,100.00
2022-09-18T18:12:14.270Z,100.00
2022-09-18T18:14:41.690Z,100.00
2022-09-18T18:17:08.639Z,100.00
2022-09-18T18:19:35.330Z,100.00
2022-09-18T18:22:02.155Z,100.00
2022-09-18T18:24:30.966Z,100.00
2022-09-18T18:26:57.600Z,100.00
2022-09-18T18:29:24.340Z,100.00
2022-09-18T18:31:51.768Z,100.00
2022-09-18T18:34:21.085Z,100.00
2022-09-18T18:36:50.007Z,100.00
2022-09-18T18:39:17.124Z,100.00
2022-09-18T18:41:44.932Z,100.00
2022-09-18T18:44:13.174Z,100.00
2022-09-18T18:46:40.112Z,100.00
2022-09-18T18:49:11.845Z,100.00
2022-09-18T18:51:43.626Z,100.00
2022-09-18T18:54:10.396Z,100.00
2022-09-18T18:56:38.480Z,100.00
2022-09-18T18:59:09.049Z,100.00
2022-09-18T19:01:36.221Z,100.00
2022-09-18T19:04:08.433Z,100.00
2022-09-18T19:06:36.450Z,100.00
2022-09-18T19:09:07.242Z,100.00
2022-09-18T19:11:38.078Z,100.00
2022-09-18T19:14:05.529Z,100.00
2022-09-18T19:16:32.474Z,100.00
2022-09-18T19:19:00.180Z,100.00
2022-09-18T19:21:27.877Z,100.00
2022-09-18T19:23:56.785Z,100.00
2022-09-18T19:26:25.432Z,100.00
2022-09-18T19:28:53.519Z,100.00
2022-09-18T19:31:21.335Z,100.00
2022-09-18T19:33:52.208Z,100.00
2022-09-18T19:36:20.565Z,100.00
2022-09-18T19:38:54.769Z,100.00
2022-09-18T19:41:38.923Z,100.00
2022-09-18T19:44:17.786Z,100.00
2022-09-18T19:46:46.160Z,100.00
2022-09-18T19:49:17.705Z,100.00
2022-09-18T19:51:45.299Z,100.00
2022-09-18T19:54:11.887Z,100.00
2022-09-18T19:56:43.208Z,100.00
2022-09-18T19:59:10.351Z,100.00
2022-09-18T20:01:36.945Z,100.00
2022-09-18T20:04:03.626Z,100.00
2022-09-18T20:06:32.215Z,100.00
2022-09-18T20:08:59.681Z,100.00
2022-09-18T20:11:26.134Z,100.00
2022-09-18T20:13:53.522Z,100.00
2022-09-18T20:16:21.081Z,100.00
2022-09-18T20:18:48.071Z,100.00
2022-09-18T20:21:17.551Z,100.00
2022-09-18T20:23:45.135Z,100.00
2022-09-18T20:26:14.798Z,100.00
2022-09-18T20:28:41.604Z,100.00
2022-09-18T20:31:12.716Z,100.00
2022-09-18T20:33:39.801Z,100.00
2022-09-18T20:36:07.885Z,100.00
2022-09-18T20:38:37.279Z,100.00
2022-09-18T20:41:07.079Z,100.00
2022-09-18T20:43:35.765Z,100.00
2022-09-18T20:46:05.399Z,100.00
2022-09-18T20:48:33.311Z,100.00
2022-09-18T20:51:00.698Z,100.00
2022-09-18T20:53:28.061Z,100.00
2022-09-18T20:55:58.496Z,100.00
2022-09-18T20:58:25.473Z,100.00
2022-09-18T21:00:54.170Z,100.00
2022-09-18T21:03:21.080Z,100.00
2022-09-18T21:05:55.693Z,100.00
2022-09-18T21:08:29.828Z,100.00
2022-09-18T21:10:56.293Z,100.00
2022-09-18T21:13:22.719Z,100.00
2022-09-18T21:15:49.140Z,100.00
2022-09-18T21:18:15.760Z,100.00
2022-09-18T21:20:43.366Z,100.00
2022-09-18T21:23:30.055Z,100.00
2022-09-18T21:25:56.768Z,100.00
2022-09-18T21:28:23.460Z,100.00
2022-09-18T21:30:50.023Z,100.00
2022-09-18T21:33:16.573Z,100.00
2022-09-18T21:35:50.964Z,100.00
2022-09-18T21:38:18.007Z,100.00
2022-09-18T21:40:45.211Z,100.00
2022-09-18T21:43:12.323Z,100.00
2022-09-18T21:45:38.713Z,100.00
2022-09-18T21:48:05.110Z,100.00
2022-09-18T21:50:34.661Z,100.00
2022-09-18T21:53:01.061Z,100.00
2022-09-18T21:55:27.564Z,100.00
2022-09-18T21:57:55.645Z,100.00
2022-09-18T22:00:22.084Z,100.00
2022-09-18T22:02:53.294Z,100.00
2022-09-18T22:05:19.751Z,100.00
2022-09-18T22:07:46.268Z,100.00
2022-09-18T22:10:14.587Z,100.00
2022-09-18T22:12:41.230Z,100.00
2022-09-18T22:15:08.157Z,100.00
2022-09-18T22:17:34.885Z,100.00
2022-09-18T22:20:01.447Z,100.00
2022-09-18T22:22:27.955Z,100.00
2022-09-18T22:24:55.439Z,100.00
2022-09-18T22:27:21.876Z,100.00
2022-09-18T22:29:48.378Z,100.00
2022-09-18T22:32:14.838Z,100.00
2022-09-18T22:34:41.622Z,100.00
2022-09-18T22:37:09.630Z,100.00
2022-09-18T22:39:36.070Z,100.00
2022-09-18T22:42:02.598Z,100.00
2022-09-18T22:44:29.021Z,100.00
2022-09-18T22:46:55.550Z,100.00
2022-09-18T22:49:22.949Z,100.00
2022-09-18T22:51:50.536Z,100.00
2022-09-18T22:54:17.227Z,100.00
2022-09-18T22:56:46.395Z,100.00
2022-09-18T22:59:15.883Z,100.00
2022-09-18T23:01:49.146Z,100.00
2022-09-18T23:04:18.416Z,100.00
2022-09-18T23:06:45.787Z,100.00
2022-09-18T23:09:13.730Z,100.00
2022-09-18T23:11:41.712Z,100.00
2022-09-18T23:14:12.186Z,100.00
2022-09-18T23:16:40.501Z,100.00
2022-09-18T23:19:11.749Z,100.00
2022-09-18T23:21:39.665Z,100.00
2022-09-18T23:24:09.073Z,100.00
2022-09-18T23:26:41.083Z,100.00
2022-09-18T23:29:09.788Z,100.00
2022-09-18T23:31:38.427Z,100.00
2022-09-18T23:34:14.776Z,100.00
2022-09-18T23:36:44.700Z,100.00
2022-09-18T23:39:14.071Z,100.00
2022-09-18T23:41:41.388Z,100.00
2022-09-18T23:44:10.255Z,100.00
2022-09-18T23:46:37.075Z,100.00
2022-09-18T23:49:04.850Z,100.00
2022-09-18T23:51:32.942Z,100.00
2022-09-18T23:54:01.299Z,100.00
2022-09-18T23:56:29.566Z,100.00
2022-09-18T23:59:00.310Z,100.00
